Hlavní strana
METAR-TAF:

METAR-TAF

Letiště :

Sørkjosen, Norsko

zeměpisná šířka: 69-47N, zeměpisná délka: 020-58E, výška: 0 m

Aktuální stav počasí

Zpráva byla vytvořena před 20 minutami, v 17:20 UTC
Západoseverozápadní vítr 12 kt
Teplota -2°C
Vlhkost vzduchu 50%
Tlak 1014 hPa
Viditelnost 10 km a více
Skoro jasno ve výšce 2500 ft
Oblačno až skoro zataženo ve výšce 5500 ft

METAR: ENSR 071720Z 29012KT 9999 FEW025 BKN055 M02/M11 Q1014 RMK WIND 1119FT 30019KT

Čas: 18:40 (17:40 UTC)


TAF: chybějící

Stav a předpovědi počasí z více než 4 000 letišť (zprávy METAR a TAF).

Červené a žluté tečky na mapě představují dostupné meteorologické stanice.

Když kurzor umístíte na tečku, zobrazí se název stanice.

Pak kliknutím zobrazíte stav a předpověď počasí.

Chcete-li změnit mapu, kliknutím na zelené tlačítko se znaménkem +mapu přiblížíte, kliknutím na zelené tlačítko se znaménkem – mapu oddálíte a kliknutím na zelené šipky přejdete na sousední mapy.


METAR-TAF: